Seafalcon — 9HA2814 — position and weather

sailwx.info

Track history (hours):
 
Tides and Currents Weather Stations Pressure Air Temp Water Temp Dewpoint Dewpoint Depression Visibility Wind Speed Wind Dir Waves Ship Positions

Seafalcon

Last reported at 2017-Feb-13 15:22 UTC. Time now 2017-Feb-24 17:46 UTC.
Position N 44°27' E 037°26'.
Warning: this ship's position is 11 days out of date.

Length 250 m; draft 12.4 m.

Type: Ship (hazmat cat A). MMSI: 256078000.

Date/timePositionNaut miles runAvg speedWind from/ knotsBaromVisibWave heightAir tempDewpointWater temp
2017-Feb-13 15:22N 44°27' E 037°26'1012.4
2017-Feb-13 14:34N 44°32' E 037°38'2 2.0
2017-Feb-13 13:34N 44°33' E 037°40'3 2.5
2017-Feb-13 12:34N 44°31' E 037°38'1 1.3
2017-Feb-13 11:34N 44°33' E 037°39'1 1.1
2017-Feb-13 10:34N 44°34' E 037°39'0 0.5
2017-Feb-13 09:34N 44°33' E 037°39'1 1.4
2017-Feb-13 08:34N 44°32' E 037°38'1616.2
2017-Feb-13 07:34N 44°35' E 038°01'0 0.0
2017-Feb-13 06:33N 44°35' E 038°01'1616.2
2017-Feb-13 05:33N 44°30' E 037°39'1 0.7
2017-Feb-13 04:33N 44°31' E 037°39'1 0.7
2017-Feb-13 03:33N 44°32' E 037°40'1 0.9
2017-Feb-13 02:33N 44°32' E 037°41'1 0.9
2017-Feb-13 01:33N 44°33' E 037°41'2 2.2
2017-Feb-13 00:33N 44°35' E 037°41'1 1.3
2017-Feb-12 23:33N 44°36' E 037°43'1 0.7
2017-Feb-12 22:33N 44°36' E 037°44'2 2.1
2017-Feb-12 21:33N 44°34' E 037°44'1 1.2
2017-Feb-12 20:33N 44°34' E 037°46'5 5.3
2017-Feb-12 19:33N 44°29' E 037°44'1 0.9
2017-Feb-12 18:33N 44°30' E 037°45'1 0.9
2017-Feb-12 17:33N 44°30' E 037°45'1 1.0
2017-Feb-12 16:33N 44°31' E 037°46'1 1.0
2017-Feb-12 15:33N 44°32' E 037°47'4 3.5
2017-Feb-12 14:33N 44°31' E 037°42'9 8.7
2017-Feb-12 13:32N 44°37' E 037°33'2 0.2
2017-Feb-11 21:23N 44°38' E 037°37'1 1.8
2017-Feb-11 20:33N 44°36' E 037°35'1 1.3
2017-Feb-11 19:33N 44°35' E 037°34'2 1.8
2017-Feb-11 18:33N 44°35' E 037°37'2 1.7
2017-Feb-11 17:33N 44°34' E 037°38'2 1.7
2017-Feb-11 16:33N 44°34' E 037°40'2 1.9
2017-Feb-11 15:33N 44°33' E 037°43'7 7.3
2017-Feb-11 14:33N 44°35' E 037°33'1 1.3
2017-Feb-11 13:33N 44°34' E 037°31'2 2.1
2017-Feb-11 12:33N 44°34' E 037°34'2 1.9
2017-Feb-11 11:33N 44°33' E 037°36'2 1.9
2017-Feb-11 10:33N 44°33' E 037°39'2 1.9
2017-Feb-11 09:33N 44°32' E 037°42'2 2.0
2017-Feb-11 08:33N 44°32' E 037°44'2 1.7
2017-Feb-11 07:33N 44°32' E 037°47'9 8.7
2017-Feb-11 06:33N 44°31' E 037°35'1010.2
2017-Feb-11 05:33N 44°36' E 037°22'1 0.8
2017-Feb-11 04:33N 44°35' E 037°23'2 2.2
2017-Feb-11 03:33N 44°35' E 037°26'2 2.3
2017-Feb-11 02:33N 44°34' E 037°29'2 2.0
2017-Feb-11 01:33N 44°33' E 037°31'2 1.7
2017-Feb-11 00:33N 44°33' E 037°33'2 1.5
2017-Feb-10 23:33N 44°32' E 037°35'2 1.6
2017-Feb-10 22:33N 44°32' E 037°37'1 1.5
2017-Feb-10 21:33N 44°31' E 037°39'2 1.5
2017-Feb-10 20:33N 44°31' E 037°42'2 1.8
2017-Feb-10 19:33N 44°31' E 037°44'2 1.7
2017-Feb-10 18:33N 44°32' E 037°47'2 1.8
2017-Feb-10 17:33N 44°32' E 037°44'1111.4
2017-Feb-10 16:33N 44°34' E 037°28'0 0.4
2017-Feb-10 15:33N 44°33' E 037°28'2 2.3
2017-Feb-10 14:33N 44°33' E 037°31'2 1.7
2017-Feb-10 13:23N 44°33' E 037°34'2 2.8
2017-Feb-10 12:33N 44°32' E 037°37'2 1.8
2017-Feb-10 11:33N 44°32' E 037°39'2 1.7
2017-Feb-10 10:33N 44°32' E 037°42'1 1.1
2017-Feb-10 09:33N 44°32' E 037°43'2 1.5
2017-Feb-10 08:33N 44°32' E 037°45'2 2.2
2017-Feb-10 07:34N 44°33' E 037°42'10 9.7
2017-Feb-10 06:33N 44°32' E 037°29'2 1.5
2017-Feb-10 05:33N 44°32' E 037°27'2 2.4
2017-Feb-10 04:33N 44°31' E 037°30'2 2.5
2017-Feb-10 03:33N 44°30' E 037°34'2 2.3
2017-Feb-10 02:33N 44°30' E 037°37'2 2.3
2017-Feb-10 01:33N 44°29' E 037°40'2 2.4
2017-Feb-10 00:33N 44°29' E 037°43'2 2.0
2017-Feb-09 23:33N 44°30' E 037°46'2 2.5
2017-Feb-09 22:33N 44°30' E 037°42'9 9.3
2017-Feb-09 21:33N 44°32' E 037°29'1 0.5
2017-Feb-09 20:33N 44°31' E 037°28'3 2.8
2017-Feb-09 19:33N 44°31' E 037°32'3 2.9
2017-Feb-09 18:33N 44°30' E 037°36'3 2.9
2017-Feb-09 17:34N 44°30' E 037°40'3 2.9
2017-Feb-09 16:33N 44°31' E 037°44'5 5.2
2017-Feb-09 15:33N 44°32' E 037°37'9 9.3
2017-Feb-09 14:33N 44°34' E 037°25'4 4.1
2017-Feb-09 13:33N 44°35' E 037°19'3 2.8
2017-Feb-09 12:33N 44°34' E 037°23'3 2.7
2017-Feb-09 11:33N 44°34' E 037°26'2 2.5
2017-Feb-09 10:33N 44°33' E 037°30'3 2.7
2017-Feb-09 09:33N 44°33' E 037°34'2 2.5
2017-Feb-09 08:33N 44°32' E 037°37'2 1.8
2017-Feb-09 07:33N 44°31' E 037°38'8 8.4
2017-Feb-09 06:34N 44°30' E 037°27'9 8.8
2017-Feb-09 05:32N 44°35' E 037°16'1 1.5
2017-Feb-09 04:31N 44°35' E 037°18'3 2.6
2017-Feb-09 03:26N 44°34' E 037°22'3 2.9
2017-Feb-09 02:32N 44°33' E 037°25'3 2.9
2017-Feb-09 01:33N 44°33' E 037°29'3 2.6
2017-Feb-09 00:33N 44°33' E 037°33'3 2.5
2017-Feb-08 23:33N 44°32' E 037°37'2 2.5
2017-Feb-08 22:34N 44°32' E 037°40'2 2.2
2017-Feb-08 21:33N 44°32' E 037°43'2 2.3
2017-Feb-08 20:33N 44°32' E 037°46'1212.0
2017-Feb-08 19:33N 44°31' E 037°30'2 2.3
2017-Feb-08 18:33N 44°31' E 037°26'126126.0
2017-Feb-08 17:33N 43°26' E 039°56'121121.0
2017-Feb-08 16:33N 44°30' E 037°34'3 2.6
2017-Feb-08 15:33N 44°30' E 037°37'3 2.6
2017-Feb-08 14:34N 44°30' E 037°41'3 2.9
2017-Feb-08 13:34N 44°30' E 037°45'3 2.8
2017-Feb-08 12:33N 44°31' E 037°49'5 5.1
2017-Feb-08 11:33N 44°35' E 037°54'0 0.4
2017-Feb-08 10:32N 44°35' E 037°54'0 0.0
2017-Feb-08 09:32N 44°35' E 037°54'0 0.0
2017-Feb-08 08:32N 44°35' E 037°54'0 0.0
2017-Feb-08 07:32N 44°35' E 037°54'0 0.1
2017-Feb-08 06:32N 44°35' E 037°54'0 0.0
2017-Feb-08 05:32N 44°35' E 037°54'0 0.0
2017-Feb-08 04:32N 44°35' E 037°54'0 0.0
2017-Feb-08 03:32N 44°35' E 037°54'0 0.0
2017-Feb-08 02:32N 44°35' E 037°54'0 0.0
2017-Feb-08 01:32N 44°35' E 037°54'0 0.0
2017-Feb-08 00:32N 44°35' E 037°54'0 0.0
2017-Feb-07 23:32N 44°35' E 037°54'0 0.0
2017-Feb-07 22:32N 44°35' E 037°54'0 0.0
2017-Feb-07 21:32N 44°35' E 037°54'0 0.1
2017-Feb-07 20:32N 44°35' E 037°54'0 0.0
2017-Feb-07 19:32N 44°35' E 037°54'0 0.0
2017-Feb-07 18:32N 44°35' E 037°54'0 0.1
2017-Feb-07 17:32N 44°35' E 037°54'0 0.2
2017-Feb-07 16:32N 44°35' E 037°54'0 0.0
2017-Feb-07 15:32N 44°35' E 037°54'0 0.0
2017-Feb-07 14:32N 44°35' E 037°54'0 0.0
2017-Feb-07 13:32N 44°35' E 037°54'0 0.0
2017-Feb-07 12:32N 44°35' E 037°54'0 0.0
2017-Feb-07 11:32N 44°35' E 037°54'0 0.0
2017-Feb-07 10:32N 44°35' E 037°54'0 0.0
2017-Feb-07 09:32N 44°35' E 037°54'0 0.1
2017-Feb-07 08:32N 44°35' E 037°54'0 0.0
2017-Feb-07 07:32N 44°35' E 037°54'0 0.0
2017-Feb-07 06:32N 44°35' E 037°54'0 0.0
2017-Feb-07 05:32N 44°35' E 037°54'1 1.3
2017-Feb-07 04:33N 44°35' E 037°52'6 6.1
2017-Feb-07 03:33N 44°36' E 037°44'2 1.6
2017-Feb-07 02:33N 44°37' E 037°42'1 1.2
2017-Feb-07 01:33N 44°36' E 037°41'1 1.0
2017-Feb-07 00:33N 44°36' E 037°40'7 7.3
2017-Feb-06 23:33N 44°30' E 037°33'1514.9
2017-Feb-06 22:33N 44°19' E 037°19'7 0.2
2017-Feb-05 11:20N 44°21' E 037°10'14 1.2
2017-Feb-04 23:32N 44°26' E 037°28'3 2.7
2017-Feb-04 22:33N 44°24' E 037°31'3 2.9
2017-Feb-04 21:30N 44°23' E 037°35'3 2.9
2017-Feb-04 20:33N 44°21' E 037°38'3 2.9
2017-Feb-04 19:33N 44°19' E 037°41'6 3.0
2017-Feb-04 17:32N 44°14' E 037°46'7 4.7
2017-Feb-04 16:07N 44°21' E 037°46'108151.1
2017-Feb-04 15:24N 43°26' E 039°56'121144.2
2017-Feb-04 14:34N 44°26' E 037°30'121103.9
2017-Feb-04 13:24N 43°27' E 039°57'115135.3
2017-Feb-04 12:32N 44°22' E 037°36'3 2.9
2017-Feb-04 11:33N 44°20' E 037°39'3 2.9
2017-Feb-04 10:33N 44°18' E 037°41'110110.8
2017-Feb-04 09:33N 43°27' E 039°57'119118.5
2017-Feb-04 08:33N 44°22' E 037°31'8 7.8
2017-Feb-04 07:33N 44°25' E 037°21'3 3.0
2017-Feb-04 06:27N 44°28' E 037°18'3 3.2
2017-Feb-04 05:31N 44°26' E 037°21'6 2.9
2017-Feb-04 03:20N 44°22' E 037°28'3 2.6
2017-Feb-04 02:21N 44°21' E 037°31'2 2.4
2017-Feb-04 01:33N 44°20' E 037°33'3 2.5
2017-Feb-04 00:10N 44°18' E 037°37'3 2.7
2017-Feb-03 23:13N 44°16' E 037°40'2 2.7
2017-Feb-03 22:32N 44°15' E 037°42'3 2.8
2017-Feb-03 21:18N 44°13' E 037°46'4 4.6
2017-Feb-03 20:32N 44°16' E 037°43'9 9.5
2017-Feb-03 19:33N 44°22' E 037°34'5 4.9
2017-Feb-03 18:33N 44°27' E 037°32'120120.4
2017-Feb-03 17:33N 43°27' E 039°57'120119.9
2017-Feb-03 16:33N 44°23' E 037°30'  
Track history (hours):
 
Tides and Currents Weather Stations Pressure Air Temp Water Temp Dewpoint Dewpoint Depression Visibility Wind Speed Wind Dir Waves Ship Positions

Seafalcon

Last reported at 2017-Feb-13 15:22 UTC. Time now 2017-Feb-24 17:46 UTC.
Position N 44°27' E 037°26'.
Warning: this ship's position is 11 days out of date.

Length 250 m; draft 12.4 m.

Type: Ship (hazmat cat A). MMSI: 256078000.

Date/timePositionNaut miles runAvg speedWind from/ knotsBaromVisibWave heightAir tempDewpointWater temp
2017-Feb-13 15:22N 44°27' E 037°26'1012.4
2017-Feb-13 14:34N 44°32' E 037°38'2 2.0
2017-Feb-13 13:34N 44°33' E 037°40'3 2.5
2017-Feb-13 12:34N 44°31' E 037°38'1 1.3
2017-Feb-13 11:34N 44°33' E 037°39'1 1.1
2017-Feb-13 10:34N 44°34' E 037°39'0 0.5
2017-Feb-13 09:34N 44°33' E 037°39'1 1.4
2017-Feb-13 08:34N 44°32' E 037°38'1616.2
2017-Feb-13 07:34N 44°35' E 038°01'0 0.0
2017-Feb-13 06:33N 44°35' E 038°01'1616.2
2017-Feb-13 05:33N 44°30' E 037°39'1 0.7
2017-Feb-13 04:33N 44°31' E 037°39'1 0.7
2017-Feb-13 03:33N 44°32' E 037°40'1 0.9
2017-Feb-13 02:33N 44°32' E 037°41'1 0.9
2017-Feb-13 01:33N 44°33' E 037°41'2 2.2
2017-Feb-13 00:33N 44°35' E 037°41'1 1.3
2017-Feb-12 23:33N 44°36' E 037°43'1 0.7
2017-Feb-12 22:33N 44°36' E 037°44'2 2.1
2017-Feb-12 21:33N 44°34' E 037°44'1 1.2
2017-Feb-12 20:33N 44°34' E 037°46'5 5.3
2017-Feb-12 19:33N 44°29' E 037°44'1 0.9
2017-Feb-12 18:33N 44°30' E 037°45'1 0.9
2017-Feb-12 17:33N 44°30' E 037°45'1 1.0
2017-Feb-12 16:33N 44°31' E 037°46'1 1.0
2017-Feb-12 15:33N 44°32' E 037°47'4 3.5
2017-Feb-12 14:33N 44°31' E 037°42'9 8.7
2017-Feb-12 13:32N 44°37' E 037°33'2 0.2
2017-Feb-11 21:23N 44°38' E 037°37'1 1.8
2017-Feb-11 20:33N 44°36' E 037°35'1 1.3
2017-Feb-11 19:33N 44°35' E 037°34'2 1.8
2017-Feb-11 18:33N 44°35' E 037°37'2 1.7
2017-Feb-11 17:33N 44°34' E 037°38'2 1.7
2017-Feb-11 16:33N 44°34' E 037°40'2 1.9
2017-Feb-11 15:33N 44°33' E 037°43'7 7.3
2017-Feb-11 14:33N 44°35' E 037°33'1 1.3
2017-Feb-11 13:33N 44°34' E 037°31'2 2.1
2017-Feb-11 12:33N 44°34' E 037°34'2 1.9
2017-Feb-11 11:33N 44°33' E 037°36'2 1.9
2017-Feb-11 10:33N 44°33' E 037°39'2 1.9
2017-Feb-11 09:33N 44°32' E 037°42'2 2.0
2017-Feb-11 08:33N 44°32' E 037°44'2 1.7
2017-Feb-11 07:33N 44°32' E 037°47'9 8.7
2017-Feb-11 06:33N 44°31' E 037°35'1010.2
2017-Feb-11 05:33N 44°36' E 037°22'1 0.8
2017-Feb-11 04:33N 44°35' E 037°23'2 2.2
2017-Feb-11 03:33N 44°35' E 037°26'2 2.3
2017-Feb-11 02:33N 44°34' E 037°29'2 2.0
2017-Feb-11 01:33N 44°33' E 037°31'2 1.7
2017-Feb-11 00:33N 44°33' E 037°33'2 1.5
2017-Feb-10 23:33N 44°32' E 037°35'2 1.6
2017-Feb-10 22:33N 44°32' E 037°37'1 1.5
2017-Feb-10 21:33N 44°31' E 037°39'2 1.5
2017-Feb-10 20:33N 44°31' E 037°42'2 1.8
2017-Feb-10 19:33N 44°31' E 037°44'2 1.7
2017-Feb-10 18:33N 44°32' E 037°47'2 1.8
2017-Feb-10 17:33N 44°32' E 037°44'1111.4
2017-Feb-10 16:33N 44°34' E 037°28'0 0.4
2017-Feb-10 15:33N 44°33' E 037°28'2 2.3
2017-Feb-10 14:33N 44°33' E 037°31'2 1.7
2017-Feb-10 13:23N 44°33' E 037°34'2 2.8
2017-Feb-10 12:33N 44°32' E 037°37'2 1.8
2017-Feb-10 11:33N 44°32' E 037°39'2 1.7
2017-Feb-10 10:33N 44°32' E 037°42'1 1.1
2017-Feb-10 09:33N 44°32' E 037°43'2 1.5
2017-Feb-10 08:33N 44°32' E 037°45'2 2.2
2017-Feb-10 07:34N 44°33' E 037°42'10 9.7
2017-Feb-10 06:33N 44°32' E 037°29'2 1.5
2017-Feb-10 05:33N 44°32' E 037°27'2 2.4
2017-Feb-10 04:33N 44°31' E 037°30'2 2.5
2017-Feb-10 03:33N 44°30' E 037°34'2 2.3
2017-Feb-10 02:33N 44°30' E 037°37'2 2.3
2017-Feb-10 01:33N 44°29' E 037°40'2 2.4
2017-Feb-10 00:33N 44°29' E 037°43'2 2.0
2017-Feb-09 23:33N 44°30' E 037°46'2 2.5
2017-Feb-09 22:33N 44°30' E 037°42'9 9.3
2017-Feb-09 21:33N 44°32' E 037°29'1 0.5
2017-Feb-09 20:33N 44°31' E 037°28'3 2.8
2017-Feb-09 19:33N 44°31' E 037°32'3 2.9
2017-Feb-09 18:33N 44°30' E 037°36'3 2.9
2017-Feb-09 17:34N 44°30' E 037°40'3 2.9
2017-Feb-09 16:33N 44°31' E 037°44'5 5.2
2017-Feb-09 15:33N 44°32' E 037°37'9 9.3
2017-Feb-09 14:33N 44°34' E 037°25'4 4.1
2017-Feb-09 13:33N 44°35' E 037°19'3 2.8
2017-Feb-09 12:33N 44°34' E 037°23'3 2.7
2017-Feb-09 11:33N 44°34' E 037°26'2 2.5
2017-Feb-09 10:33N 44°33' E 037°30'3 2.7
2017-Feb-09 09:33N 44°33' E 037°34'2 2.5
2017-Feb-09 08:33N 44°32' E 037°37'2 1.8
2017-Feb-09 07:33N 44°31' E 037°38'8 8.4
2017-Feb-09 06:34N 44°30' E 037°27'9 8.8
2017-Feb-09 05:32N 44°35' E 037°16'1 1.5
2017-Feb-09 04:31N 44°35' E 037°18'3 2.6
2017-Feb-09 03:26N 44°34' E 037°22'3 2.9
2017-Feb-09 02:32N 44°33' E 037°25'3 2.9
2017-Feb-09 01:33N 44°33' E 037°29'3 2.6
2017-Feb-09 00:33N 44°33' E 037°33'3 2.5
2017-Feb-08 23:33N 44°32' E 037°37'2 2.5
2017-Feb-08 22:34N 44°32' E 037°40'2 2.2
2017-Feb-08 21:33N 44°32' E 037°43'2 2.3
2017-Feb-08 20:33N 44°32' E 037°46'1212.0
2017-Feb-08 19:33N 44°31' E 037°30'2 2.3
2017-Feb-08 18:33N 44°31' E 037°26'126126.0
2017-Feb-08 17:33N 43°26' E 039°56'121121.0
2017-Feb-08 16:33N 44°30' E 037°34'3 2.6
2017-Feb-08 15:33N 44°30' E 037°37'3 2.6
2017-Feb-08 14:34N 44°30' E 037°41'3 2.9
2017-Feb-08 13:34N 44°30' E 037°45'3 2.8
2017-Feb-08 12:33N 44°31' E 037°49'5 5.1
2017-Feb-08 11:33N 44°35' E 037°54'0 0.4
2017-Feb-08 10:32N 44°35' E 037°54'0 0.0
2017-Feb-08 09:32N 44°35' E 037°54'0 0.0
2017-Feb-08 08:32N 44°35' E 037°54'0 0.0
2017-Feb-08 07:32N 44°35' E 037°54'0 0.1
2017-Feb-08 06:32N 44°35' E 037°54'0 0.0
2017-Feb-08 05:32N 44°35' E 037°54'0 0.0
2017-Feb-08 04:32N 44°35' E 037°54'0 0.0
2017-Feb-08 03:32N 44°35' E 037°54'0 0.0
2017-Feb-08 02:32N 44°35' E 037°54'0 0.0
2017-Feb-08 01:32N 44°35' E 037°54'0 0.0
2017-Feb-08 00:32N 44°35' E 037°54'0 0.0
2017-Feb-07 23:32N 44°35' E 037°54'0 0.0
2017-Feb-07 22:32N 44°35' E 037°54'0 0.0
2017-Feb-07 21:32N 44°35' E 037°54'0 0.1
2017-Feb-07 20:32N 44°35' E 037°54'0 0.0
2017-Feb-07 19:32N 44°35' E 037°54'0 0.0
2017-Feb-07 18:32N 44°35' E 037°54'0 0.1
2017-Feb-07 17:32N 44°35' E 037°54'0 0.2
2017-Feb-07 16:32N 44°35' E 037°54'0 0.0
2017-Feb-07 15:32N 44°35' E 037°54'0 0.0
2017-Feb-07 14:32N 44°35' E 037°54'0 0.0
2017-Feb-07 13:32N 44°35' E 037°54'0 0.0
2017-Feb-07 12:32N 44°35' E 037°54'0 0.0
2017-Feb-07 11:32N 44°35' E 037°54'0 0.0
2017-Feb-07 10:32N 44°35' E 037°54'0 0.0
2017-Feb-07 09:32N 44°35' E 037°54'0 0.1
2017-Feb-07 08:32N 44°35' E 037°54'0 0.0
2017-Feb-07 07:32N 44°35' E 037°54'0 0.0
2017-Feb-07 06:32N 44°35' E 037°54'0 0.0
2017-Feb-07 05:32N 44°35' E 037°54'1 1.3
2017-Feb-07 04:33N 44°35' E 037°52'6 6.1
2017-Feb-07 03:33N 44°36' E 037°44'2 1.6
2017-Feb-07 02:33N 44°37' E 037°42'1 1.2
2017-Feb-07 01:33N 44°36' E 037°41'1 1.0
2017-Feb-07 00:33N 44°36' E 037°40'7 7.3
2017-Feb-06 23:33N 44°30' E 037°33'1514.9
2017-Feb-06 22:33N 44°19' E 037°19'7 0.2
2017-Feb-05 11:20N 44°21' E 037°10'14 1.2
2017-Feb-04 23:32N 44°26' E 037°28'3 2.7
2017-Feb-04 22:33N 44°24' E 037°31'3 2.9
2017-Feb-04 21:30N 44°23' E 037°35'3 2.9
2017-Feb-04 20:33N 44°21' E 037°38'3 2.9
2017-Feb-04 19:33N 44°19' E 037°41'6 3.0
2017-Feb-04 17:32N 44°14' E 037°46'7 4.7
2017-Feb-04 16:07N 44°21' E 037°46'108151.1
2017-Feb-04 15:24N 43°26' E 039°56'121144.2
2017-Feb-04 14:34N 44°26' E 037°30'121103.9
2017-Feb-04 13:24N 43°27' E 039°57'115135.3
2017-Feb-04 12:32N 44°22' E 037°36'3 2.9
2017-Feb-04 11:33N 44°20' E 037°39'3 2.9
2017-Feb-04 10:33N 44°18' E 037°41'110110.8
2017-Feb-04 09:33N 43°27' E 039°57'119118.5
2017-Feb-04 08:33N 44°22' E 037°31'8 7.8
2017-Feb-04 07:33N 44°25' E 037°21'3 3.0
2017-Feb-04 06:27N 44°28' E 037°18'3 3.2
2017-Feb-04 05:31N 44°26' E 037°21'6 2.9
2017-Feb-04 03:20N 44°22' E 037°28'3 2.6
2017-Feb-04 02:21N 44°21' E 037°31'2 2.4
2017-Feb-04 01:33N 44°20' E 037°33'3 2.5
2017-Feb-04 00:10N 44°18' E 037°37'3 2.7
2017-Feb-03 23:13N 44°16' E 037°40'2 2.7
2017-Feb-03 22:32N 44°15' E 037°42'3 2.8
2017-Feb-03 21:18N 44°13' E 037°46'4 4.6
2017-Feb-03 20:32N 44°16' E 037°43'9 9.5
2017-Feb-03 19:33N 44°22' E 037°34'5 4.9
2017-Feb-03 18:33N 44°27' E 037°32'120120.4
2017-Feb-03 17:33N 43°27' E 039°57'120119.9
2017-Feb-03 16:33N 44°23' E 037°30'  

Dump ship's entire track history